Time;durP1;ratioP1;P1;durP2;ratioP2;P2;SDS_P1;SDS_P2;PMS_P1;PMS_P2;Temp;Humidity;BMP_temperature;BMP_pressure;BME280_temperature;BME280_humidity;BME280_pressure;Samples;Min_cycle;Max_cycle;Signal;HPM_P1;HPM_P2
2021/07/05 00:00:38;;;;;;;;;;;;;;;;;;;;;
2021/07/05 00:03:21;;;;;;;143.73;135.43;;;13.10;99.90;;;;;;6178326;23;20427;-85
2021/07/05 00:06:11;;;;;;;;;;;;;;;;;;;;;
2021/07/05 00:08:58;;;;;;;149.40;140.80;;;12.90;99.90;;;;;;6256479;23;20478;-85
2021/07/05 00:11:42;;;;;;;153.13;144.00;;;12.90;99.90;;;;;;6255265;23;20751;-85
2021/07/05 00:14:25;;;;;;;152.73;144.13;;;12.80;99.90;;;;;;6256017;23;20403;-85
2021/07/05 00:17:03;;;;;;;145.53;136.07;;;12.80;99.90;;;;;;6256611;23;20408;-85
2021/07/05 00:19:57;;;;;;;147.63;138.13;;;13.00;99.90;;;;;;6246393;23;20771;-84
2021/07/05 00:22:24;;;;;;;140.80;131.90;;;13.00;99.90;;;;;;6094353;23;20815;-85
2021/07/05 00:24:58;;;;;;;139.13;130.53;;;13.20;99.90;;;;;;6198034;23;20415;-85
2021/07/05 00:27:41;;;;;;;138.17;128.97;;;13.30;99.90;;;;;;6255155;23;20872;-85
2021/07/05 00:30:26;;;;;;;141.23;132.80;;;13.30;99.90;;;;;;6246253;23;20403;-85
2021/07/05 00:32:58;;;;;;;138.00;129.70;;;13.30;99.90;;;;;;6246375;23;20478;-85
2021/07/05 00:36:01;;;;;;;149.80;140.13;;;13.40;99.90;;;;;;6256350;23;20404;-85
2021/07/05 00:38:47;;;;;;;139.20;130.60;;;13.30;99.90;;;;;;6094120;23;20415;-86
2021/07/05 00:41:41;;;;;;;;;;;;;;;;;;;;;
2021/07/05 00:44:18;;;;;;;137.90;128.77;;;13.50;99.90;;;;;;6232602;23;20798;-85
2021/07/05 00:46:50;;;;;;;142.77;132.97;;;13.50;99.90;;;;;;6255924;23;20417;-84
2021/07/05 00:49:19;;;;;;;138.27;129.50;;;13.60;99.90;;;;;;6255943;23;20434;-85
2021/07/05 00:51:52;;;;;;;149.33;139.80;;;13.60;99.90;;;;;;6256260;23;20459;-85
2021/07/05 00:54:24;;;;;;;143.00;132.87;;;13.60;99.90;;;;;;6256054;23;20923;-85
2021/07/05 00:56:52;;;;;;;147.37;137.70;;;13.70;99.90;;;;;;6244742;23;20430;-85
2021/07/05 00:59:34;;;;;;;149.23;140.13;;;13.80;99.90;;;;;;6246011;23;20470;-85
2021/07/05 01:05:20;;;;;;;155.93;146.33;;;13.80;99.90;;;;;;6181017;23;20418;-85
2021/07/05 01:07:55;;;;;;;149.70;141.10;;;13.90;99.90;;;;;;6246007;23;20399;-85
2021/07/05 01:10:39;;;;;;;149.73;140.23;;;13.90;99.90;;;;;;6255351;23;20403;-85
2021/07/05 01:13:29;;;;;;;154.67;145.27;;;14.00;99.90;;;;;;6245968;23;20435;-85
2021/07/05 01:16:21;;;;;;;153.87;144.77;;;14.00;99.90;;;;;;6169746;23;20408;-85
2021/07/05 01:19:13;;;;;;;158.57;149.07;;;14.10;99.90;;;;;;6214361;23;20418;-85
2021/07/05 01:21:49;;;;;;;154.30;145.10;;;14.10;99.90;;;;;;6234220;23;20756;-85
2021/07/05 01:24:28;;;;;;;160.60;150.13;;;14.10;99.90;;;;;;6245419;23;20461;-85
2021/07/05 01:27:01;;;;;;;160.10;150.53;;;14.10;99.90;;;;;;6244106;23;20422;-85
2021/07/05 01:29:40;;;;;;;165.73;156.30;;;14.10;99.90;;;;;;6246023;23;20402;-85
2021/07/05 01:32:08;;;;;;;159.80;150.17;;;14.10;99.90;;;;;;6256249;23;20717;-84
2021/07/05 01:34:53;;;;;;;164.03;154.83;;;14.10;99.90;;;;;;6255727;23;20407;-86
2021/07/05 01:37:26;;;;;;;159.70;149.70;;;14.30;99.90;;;;;;6246078;23;20731;-85
2021/07/05 01:42:50;;;;;;;169.17;159.47;;;14.10;99.90;;;;;;6254735;23;20514;-85
2021/07/05 01:45:33;;;;;;;167.10;157.63;;;14.10;99.90;;;;;;6245772;23;20406;-85
2021/07/05 01:48:28;;;;;;;166.73;157.20;;;14.20;99.90;;;;;;6255574;23;20407;-85
2021/07/05 01:51:18;;;;;;;169.17;159.63;;;14.00;99.90;;;;;;6245895;23;20434;-85
2021/07/05 01:53:52;;;;;;;174.00;164.53;;;14.10;99.90;;;;;;6245494;23;20933;-85
2021/07/05 01:56:41;;;;;;;186.10;175.93;;;14.10;99.90;;;;;;6254470;23;20404;-85
2021/07/05 01:59:17;;;;;;;186.47;176.10;;;14.10;99.90;;;;;;6255986;23;20469;-85
2021/07/05 02:04:36;;;;;;;184.23;174.43;;;14.10;99.90;;;;;;6242934;23;20410;-86
2021/07/05 02:07:55;;;;;;;190.20;181.10;;;14.20;99.90;;;;;;6255717;23;20501;-85
2021/07/05 02:11:12;;;;;;;;;;;;;;;;;;;;;
2021/07/05 02:13:56;;;;;;;;;;;;;;;;;;;;;
2021/07/05 02:17:02;;;;;;;205.33;195.10;;;14.20;99.90;;;;;;6177503;23;20403;-85
2021/07/05 02:19:45;;;;;;;198.03;188.47;;;14.20;99.90;;;;;;6103528;23;20416;-86
2021/07/05 02:22:24;;;;;;;;;;;;;;;;;;;;;
2021/07/05 02:24:51;;;;;;;215.23;205.17;;;14.20;99.90;;;;;;6242688;23;20435;-85
2021/07/05 02:30:16;;;;;;;218.27;208.53;;;14.40;99.90;;;;;;6234671;23;20438;-84
2021/07/05 02:36:13;;;;;;;218.77;208.67;;;14.40;99.90;;;;;;6255499;23;20399;-85
2021/07/05 02:38:47;;;;;;;222.77;212.50;;;14.40;99.90;;;;;;6245847;23;20416;-85
2021/07/05 02:41:20;;;;;;;222.73;212.73;;;14.50;99.90;;;;;;6256229;23;20400;-85
2021/07/05 02:44:02;;;;;;;226.70;216.40;;;14.50;99.90;;;;;;6257290;23;20849;-85
2021/07/05 02:46:55;;;;;;;;;;;;;;;;;;;;;
2021/07/05 02:49:32;;;;;;;235.60;225.27;;;14.60;99.90;;;;;;6246535;23;20403;-85
2021/07/05 02:52:08;;;;;;;241.60;229.90;;;14.60;99.90;;;;;;6256941;23;20493;-85
2021/07/05 02:54:57;;;;;;;239.07;228.27;;;14.70;99.90;;;;;;6257483;23;20415;-85
2021/07/05 02:57:32;;;;;;;251.93;240.83;;;14.80;99.90;;;;;;6255768;23;20883;-85
2021/07/05 03:00:16;;;;;;;251.27;239.73;;;14.70;99.90;;;;;;6257600;23;20709;-85
2021/07/05 03:06:11;;;;;;;246.57;234.93;;;14.90;99.90;;;;;;6254314;23;20550;-85
2021/07/05 03:08:55;;;;;;;248.17;234.17;;;14.80;99.90;;;;;;6257245;23;20414;-85
2021/07/05 03:11:26;;;;;;;243.03;231.43;;;14.80;99.90;;;;;;6245368;23;20450;-85
2021/07/05 03:14:09;;;;;;;;;;;;;;;;;;;;;
2021/07/05 03:17:15;;;;;;;251.37;240.17;;;14.80;99.90;;;;;;6204200;23;20419;-85
2021/07/05 03:20:28;;;;;;;256.40;244.70;;;14.80;99.90;;;;;;6221311;23;20451;-85
2021/07/05 03:23:28;;;;;;;;;;;;;;;;;;;;;
2021/07/05 03:25:56;;;;;;;262.40;250.60;;;14.90;99.90;;;;;;6172533;23;20440;-84
2021/07/05 03:28:23;;;;;;;255.83;244.23;;;14.90;99.90;;;;;;6247210;23;20396;-82
2021/07/05 03:30:52;;;;;;;267.50;255.40;;;15.00;99.90;;;;;;6247156;23;20864;-80
2021/07/05 03:33:19;;;;;;;269.13;257.80;;;15.00;99.90;;;;;;6246679;23;20400;-83
2021/07/05 03:35:50;;;;;;;259.70;248.60;;;15.00;99.90;;;;;;6246474;23;20921;-86
2021/07/05 03:38:19;;;;;;;290.27;277.10;;;15.00;99.90;;;;;;6246826;23;20483;-84
2021/07/05 03:40:49;;;;;;;270.87;259.30;;;15.00;99.90;;;;;;6245168;23;20411;-85
2021/07/05 03:43:25;;;;;;;301.30;289.23;;;15.10;99.90;;;;;;6246791;23;20439;-84
2021/07/05 03:45:55;;;;;;;314.63;301.63;;;15.00;99.90;;;;;;6257139;23;20404;-85
2021/07/05 03:48:25;;;;;;;323.20;311.40;;;15.10;99.90;;;;;;6256417;23;20482;-88
2021/07/05 03:50:56;;;;;;;302.33;291.07;;;15.10;99.90;;;;;;6256642;23;20481;-87
2021/07/05 03:54:01;;;;;;;294.97;283.90;;;15.10;99.90;;;;;;6246487;23;20403;-86
2021/07/05 03:56:30;;;;;;;318.37;306.43;;;15.00;99.90;;;;;;6255300;23;20958;-84
2021/07/05 03:58:59;;;;;;;290.43;279.43;;;15.00;99.90;;;;;;6256775;23;20443;-86
2021/07/05 04:01:58;;;;;;;;;;;;;;;;;;;;;
2021/07/05 04:08:25;;;;;;;;;;;;;;;;;;;;;
2021/07/05 04:11:17;;;;;;;239.30;229.83;;;14.30;99.90;;;;;;6222284;23;20790;-84
2021/07/05 04:13:50;;;;;;;227.93;218.80;;;14.30;99.90;;;;;;6256305;23;20825;-84
2021/07/05 04:16:18;;;;;;;227.57;218.67;;;14.20;99.90;;;;;;6246606;23;20407;-84
2021/07/05 04:18:49;;;;;;;225.50;216.50;;;14.20;99.90;;;;;;6246500;23;20488;-85
2021/07/05 04:21:22;;;;;;;221.87;212.60;;;14.20;99.90;;;;;;6257024;23;20422;-84
2021/07/05 04:24:27;;;;;;;;;;;;;;;;;;;;;
2021/07/05 04:27:05;;;;;;;217.67;208.83;;;14.10;99.90;;;;;;6254967;23;20396;-85
2021/07/05 04:33:41;;;;;;;209.30;200.60;;;13.90;99.90;;;;;;6244662;23;20926;-85
2021/07/05 04:36:45;;;;;;;;;;;;;;;;;;;;;
2021/07/05 04:46:34;;;;;;;;;;;;;;;;;;;;;
2021/07/05 04:55:05;;;;;;;;;;;;;;;;;;;;;
2021/07/05 05:01:24;;;;;;;237.57;228.10;;;14.10;99.90;;;;;;6062339;23;20804;-85
2021/07/05 05:07:31;;;;;;;234.67;225.37;;;14.20;99.90;;;;;;6111570;23;20437;-86
2021/07/05 05:10:01;;;;;;;233.47;224.07;;;14.20;99.90;;;;;;6153076;23;20408;-84
2021/07/05 05:12:28;;;;;;;235.27;225.77;;;14.10;99.90;;;;;;6161745;23;20403;-84
2021/07/05 05:14:56;;;;;;;229.33;219.97;;;14.20;99.90;;;;;;6237519;23;20443;-85
2021/07/05 05:17:25;;;;;;;231.40;222.10;;;14.10;99.90;;;;;;6255839;23;20930;-84
2021/07/05 05:19:51;;;;;;;231.40;222.10;;;14.10;99.90;;;;;;6255829;23;20411;-85
2021/07/05 05:22:23;;;;;;;229.23;219.27;;;14.10;99.90;;;;;;6255552;23;20435;-84
2021/07/05 05:24:50;;;;;;;227.03;217.63;;;14.10;99.90;;;;;;6245742;23;20927;-80
2021/07/05 05:27:16;;;;;;;230.50;221.13;;;14.20;99.90;;;;;;6244495;23;20710;-80
2021/07/05 05:29:44;;;;;;;223.50;214.20;;;14.10;99.90;;;;;;6245798;23;20407;-81
2021/07/05 05:32:40;;;;;;;212.33;203.57;;;14.20;99.90;;;;;;6246017;23;20411;-84
2021/07/05 05:35:16;;;;;;;221.67;212.47;;;14.20;99.90;;;;;;6240380;23;20744;-82
2021/07/05 05:37:44;;;;;;;226.67;217.47;;;14.30;99.90;;;;;;6255777;23;20488;-84
2021/07/05 05:40:21;;;;;;;229.70;220.30;;;14.40;99.90;;;;;;6255696;23;20419;-85
2021/07/05 05:42:48;;;;;;;226.10;216.50;;;14.40;99.90;;;;;;6245394;23;21111;-85
2021/07/05 05:45:16;;;;;;;232.10;222.17;;;14.60;99.90;;;;;;6245774;23;20409;-79
2021/07/05 05:47:43;;;;;;;230.67;221.10;;;14.70;99.90;;;;;;6245833;23;20486;-81
2021/07/05 05:50:22;;;;;;;224.47;215.17;;;14.80;99.90;;;;;;6245276;23;20463;-84
2021/07/05 05:53:14;;;;;;;217.60;208.50;;;14.80;99.90;;;;;;6256000;23;20399;-84
2021/07/05 05:55:47;;;;;;;185.97;178.00;;;14.90;99.90;;;;;;6232529;23;20419;-84
2021/07/05 05:58:19;;;;;;;208.50;200.10;;;15.00;99.90;;;;;;6256065;23;20407;-84
2021/07/05 06:00:53;;;;;;;197.87;189.30;;;14.90;99.90;;;;;;6245848;23;20399;-85
2021/07/05 06:03:26;;;;;;;207.97;199.53;;;14.90;99.90;;;;;;6255608;23;20434;-87
2021/07/05 06:06:42;;;;;;;;;;;;;;;;;;;;;
2021/07/05 06:10:03;;;;;;;231.10;222.10;;;15.20;99.90;;;;;;6117768;23;20448;-87
2021/07/05 06:12:50;;;;;;;219.10;210.50;;;15.50;99.90;;;;;;6073778;23;20468;-88
2021/07/05 06:15:36;;;;;;;230.97;221.97;;;15.50;99.90;;;;;;6066461;23;20439;-88
2021/07/05 06:18:05;;;;;;;229.23;220.13;;;15.60;99.90;;;;;;6116304;23;20428;-85
2021/07/05 06:20:32;;;;;;;220.47;211.83;;;15.60;99.90;;;;;;6174068;23;20410;-88
2021/07/05 06:23:00;;;;;;;227.93;219.13;;;15.70;99.90;;;;;;6247575;23;20510;-88
2021/07/05 06:25:38;;;;;;;206.87;198.63;;;16.00;99.90;;;;;;6256564;23;20785;-86
2021/07/05 06:28:16;;;;;;;225.60;216.63;;;15.90;99.90;;;;;;6257735;23;20419;-88
2021/07/05 06:30:47;;;;;;;197.03;189.13;;;16.10;99.90;;;;;;6247168;23;20403;-89
2021/07/05 06:33:16;;;;;;;57.77;53.73;;;16.30;99.90;;;;;;6257256;23;20750;-90
2021/07/05 06:35:47;;;;;;;83.03;78.43;;;16.10;99.90;;;;;;6257785;23;20412;-88
2021/07/05 06:38:16;;;;;;;108.80;103.37;;;16.00;99.90;;;;;;6257812;23;20407;-88
2021/07/05 06:40:49;;;;;;;59.97;55.83;;;16.10;99.90;;;;;;6245939;23;21212;-86
2021/07/05 06:44:06;;;;;;;58.33;54.33;;;15.90;99.90;;;;;;6257930;23;20419;-86
2021/07/05 08:59:28;;;;;;;20.80;2.50;;;19.10;58.90;;;;;;6218058;22;20477;31
2021/07/05 16:15:01;;;;;;;;;;;;;;;;;;;;;
2021/07/05 16:17:58;;;;;;;36.27;3.80;;;21.40;42.30;;;;;;5948955;23;20421;-83
2021/07/05 16:20:49;;;;;;;;;;;;;;;;;;;;;
2021/07/05 16:23:23;;;;;;;28.73;3.30;;;21.40;45.70;;;;;;6133845;23;20403;-84
